Time;durP1;ratioP1;P1;durP2;ratioP2;P2;SDS_P1;SDS_P2;PMS_P1;PMS_P2;Temp;Humidity;BMP_temperature;BMP_pressure;BME280_temperature;BME280_humidity;BME280_pressure;Samples;Min_cycle;Max_cycle;Signal;HPM_P1;HPM_P2
2023/05/24 00:01:07;;;;;;;8.43;2.72;;;13.30;90.80;;;;;;6182487;23;20061;-60
2023/05/24 00:03:33;;;;;;;6.75;2.80;;;13.30;90.70;;;;;;6154790;23;20005;-61
2023/05/24 00:06:05;;;;;;;9.50;3.20;;;13.20;90.60;;;;;;6181921;23;20005;-61
2023/05/24 00:08:33;;;;;;;11.68;3.03;;;13.20;90.70;;;;;;6182152;23;20194;-60
2023/05/24 00:10:59;;;;;;;11.13;3.15;;;13.20;90.70;;;;;;6182055;23;20036;-60
2023/05/24 00:13:25;;;;;;;10.07;3.22;;;13.20;90.60;;;;;;6181967;23;20005;-60
2023/05/24 00:15:52;;;;;;;8.07;2.75;;;13.20;90.60;;;;;;6181696;23;20127;-60
2023/05/24 00:18:18;;;;;;;7.53;2.80;;;13.20;90.70;;;;;;6181213;23;20040;-60
2023/05/24 00:20:44;;;;;;;9.43;2.55;;;13.10;90.50;;;;;;6155539;23;20063;-60
2023/05/24 00:23:10;;;;;;;8.95;3.10;;;13.10;90.60;;;;;;6182407;23;20019;-59
2023/05/24 00:25:36;;;;;;;9.45;3.15;;;13.10;90.60;;;;;;6182268;23;20029;-60
2023/05/24 00:28:01;;;;;;;7.55;3.13;;;13.10;90.40;;;;;;6181809;23;20021;-60
2023/05/24 00:30:27;;;;;;;6.07;2.80;;;13.10;90.40;;;;;;6180795;23;20462;-60
2023/05/24 00:32:52;;;;;;;7.93;2.70;;;13.10;90.40;;;;;;6181786;23;20055;-60
2023/05/24 00:35:18;;;;;;;6.45;2.50;;;13.00;90.50;;;;;;6182215;23;20489;-60
2023/05/24 00:37:44;;;;;;;6.10;2.50;;;13.00;90.40;;;;;;6181702;23;20005;-60
2023/05/24 00:40:13;;;;;;;14.07;4.03;;;13.00;90.40;;;;;;6182123;23;20513;-59
2023/05/24 00:42:39;;;;;;;9.63;2.70;;;13.00;90.40;;;;;;6181546;23;20009;-59
2023/05/24 00:45:05;;;;;;;7.45;2.88;;;13.00;90.40;;;;;;6181521;23;20028;-59
2023/05/24 00:47:32;;;;;;;12.70;3.05;;;13.00;90.40;;;;;;6181381;23;20017;-60
2023/05/24 00:49:58;;;;;;;10.10;3.60;;;13.00;90.40;;;;;;6182691;23;20032;-60
2023/05/24 00:52:24;;;;;;;9.23;2.70;;;13.00;90.30;;;;;;6181215;23;20490;-60
2023/05/24 00:54:49;;;;;;;8.77;2.70;;;12.90;90.30;;;;;;6182339;23;20328;-60
2023/05/24 00:57:17;;;;;;;10.05;3.42;;;12.90;90.20;;;;;;6154560;23;20090;-61
2023/05/24 00:59:44;;;;;;;7.20;2.63;;;13.00;90.30;;;;;;6182094;23;20088;-61
2023/05/24 01:02:10;;;;;;;7.68;3.00;;;13.00;90.30;;;;;;6180158;23;20008;-61
2023/05/24 01:04:36;;;;;;;10.32;4.13;;;12.90;90.30;;;;;;6182185;23;20009;-61
2023/05/24 01:07:22;;;;;;;7.82;2.95;;;13.00;90.30;;;;;;6181177;23;20017;-61
2023/05/24 01:10:12;;;;;;;6.30;2.97;;;12.90;90.30;;;;;;6182062;23;20005;-60
2023/05/24 01:13:00;;;;;;;11.00;3.72;;;12.90;90.20;;;;;;6180988;23;20013;-60
2023/05/24 01:15:58;;;;;;;6.78;2.72;;;12.90;90.30;;;;;;6181570;23;20403;-60
2023/05/24 01:18:30;;;;;;;7.60;2.00;;;13.00;90.30;;;;;;6181090;23;20040;-59
2023/05/24 01:21:11;;;;;;;8.20;3.50;;;13.00;90.20;;;;;;6154065;23;20009;-60
2023/05/24 01:23:51;;;;;;;12.68;3.00;;;13.00;90.20;;;;;;6181849;23;20040;-59
2023/05/24 01:26:37;;;;;;;6.22;2.53;;;13.00;90.40;;;;;;6180947;23;20024;-60
2023/05/24 01:29:04;;;;;;;6.63;3.10;;;13.00;90.30;;;;;;6181644;23;20040;-60
2023/05/24 01:31:29;;;;;;;8.43;3.15;;;13.00;90.40;;;;;;6181283;23;20013;-60
2023/05/24 01:33:55;;;;;;;6.88;2.85;;;13.10;90.40;;;;;;6180617;23;20067;-60
2023/05/24 01:36:21;;;;;;;7.40;3.35;;;13.10;90.30;;;;;;6178762;23;20012;-59
2023/05/24 01:38:47;;;;;;;9.25;3.15;;;13.10;90.40;;;;;;6180901;23;20446;-59
2023/05/24 01:41:19;;;;;;;6.07;2.72;;;13.10;90.40;;;;;;6181169;23;20009;-60
2023/05/24 01:44:07;;;;;;;7.05;3.05;;;13.20;90.40;;;;;;6153938;23;20354;-59
2023/05/24 01:46:37;;;;;;;9.05;2.50;;;13.10;90.20;;;;;;6180829;23;20070;-59
2023/05/24 01:49:21;;;;;;;10.35;2.95;;;13.20;90.20;;;;;;6180005;23;20027;-71
2023/05/24 01:51:57;;;;;;;7.85;2.90;;;13.10;90.20;;;;;;6180379;23;20017;-70
2023/05/24 01:54:25;;;;;;;7.35;3.22;;;13.20;90.30;;;;;;6181672;23;20012;-71
2023/05/24 01:56:53;;;;;;;5.70;2.85;;;13.20;90.30;;;;;;6181549;23;20013;-71
2023/05/24 01:59:21;;;;;;;7.45;3.05;;;13.20;90.10;;;;;;6181427;23;20055;-70
2023/05/24 02:01:47;;;;;;;14.18;3.00;;;13.20;90.10;;;;;;6181201;23;20020;-69
2023/05/24 02:04:13;;;;;;;5.43;2.20;;;13.20;90.20;;;;;;6154435;23;20515;-69
2023/05/24 02:06:38;;;;;;;5.80;2.55;;;13.20;90.10;;;;;;6178968;23;20021;-71
2023/05/24 02:09:04;;;;;;;4.63;2.20;;;13.20;90.10;;;;;;6180804;23;20013;-70
2023/05/24 02:11:30;;;;;;;11.82;2.90;;;13.20;90.20;;;;;;6180756;23;20013;-71
2023/05/24 02:13:55;;;;;;;9.48;2.70;;;13.30;90.20;;;;;;6180873;23;20067;-69
2023/05/24 02:16:23;;;;;;;11.25;3.83;;;13.20;90.20;;;;;;6181475;23;20423;-70
2023/05/24 02:18:49;;;;;;;10.70;2.83;;;13.20;90.30;;;;;;6181086;23;20005;-69
2023/05/24 02:21:15;;;;;;;7.70;2.50;;;13.30;90.40;;;;;;6180756;23;20016;-70
2023/05/24 02:23:40;;;;;;;12.57;4.15;;;13.30;90.40;;;;;;6181147;23;20346;-70
2023/05/24 02:26:10;;;;;;;6.88;2.95;;;13.30;90.40;;;;;;6180948;23;20013;-71
2023/05/24 02:28:36;;;;;;;11.07;3.08;;;13.20;90.40;;;;;;6181751;23;20019;-69
2023/05/24 02:31:01;;;;;;;10.57;2.90;;;13.20;90.50;;;;;;6180279;23;20434;-69
2023/05/24 02:33:28;;;;;;;8.70;2.67;;;13.20;90.50;;;;;;6181011;23;20017;-68
2023/05/24 02:35:54;;;;;;;15.50;3.45;;;13.30;90.60;;;;;;6180478;23;20004;-69
2023/05/24 02:38:20;;;;;;;9.50;2.88;;;13.30;90.60;;;;;;6181301;23;20013;-69
2023/05/24 02:40:46;;;;;;;10.18;3.38;;;13.30;90.50;;;;;;6153807;23;20032;-69
2023/05/24 02:43:11;;;;;;;7.45;2.78;;;13.30;90.50;;;;;;6180778;23;20016;-68
2023/05/24 02:45:37;;;;;;;6.47;2.67;;;13.30;90.50;;;;;;6181655;23;20005;-68
2023/05/24 02:48:02;;;;;;;7.95;3.10;;;13.30;90.50;;;;;;6154518;23;20448;-69
2023/05/24 02:50:28;;;;;;;6.93;2.42;;;13.20;90.60;;;;;;6180721;23;20009;-67
2023/05/24 02:52:53;;;;;;;9.60;2.72;;;13.20;90.60;;;;;;6180795;23;20033;-70
2023/05/24 02:55:19;;;;;;;8.00;2.53;;;13.20;90.50;;;;;;6180784;23;20034;-60
2023/05/24 02:57:46;;;;;;;10.27;3.10;;;13.30;90.60;;;;;;6183463;23;20447;-59
2023/05/24 03:00:13;;;;;;;11.63;3.28;;;13.20;90.60;;;;;;6182499;23;20020;-60
2023/05/24 03:02:39;;;;;;;12.05;3.35;;;13.20;90.60;;;;;;6182386;23;20009;-60
2023/05/24 03:05:06;;;;;;;8.25;2.75;;;13.30;90.70;;;;;;6182175;23;20009;-60
2023/05/24 03:07:32;;;;;;;9.02;2.38;;;13.30;90.70;;;;;;6183239;23;20025;-60
2023/05/24 03:09:57;;;;;;;8.77;3.38;;;13.30;90.70;;;;;;6182093;23;20008;-60
2023/05/24 03:12:23;;;;;;;15.00;3.63;;;13.30;90.70;;;;;;6183098;23;20009;-59
2023/05/24 03:14:49;;;;;;;9.27;2.75;;;13.40;90.60;;;;;;6183419;23;20450;-60
2023/05/24 03:17:15;;;;;;;7.78;2.53;;;13.30;90.60;;;;;;6181739;23;20008;-60
2023/05/24 03:19:40;;;;;;;16.60;3.90;;;13.30;90.70;;;;;;6182833;23;20008;-61
2023/05/24 03:22:06;;;;;;;12.45;3.30;;;13.40;90.90;;;;;;6155346;23;20465;-61
2023/05/24 03:24:33;;;;;;;10.10;3.53;;;13.30;90.90;;;;;;6182976;23;20032;-69
2023/05/24 03:26:58;;;;;;;9.68;3.25;;;13.30;90.90;;;;;;6181747;23;20056;-69
2023/05/24 03:29:24;;;;;;;9.35;3.22;;;13.30;90.80;;;;;;6183098;23;20009;-69
2023/05/24 03:31:49;;;;;;;14.20;3.10;;;13.30;90.80;;;;;;6182083;23;20009;-68
2023/05/24 03:34:15;;;;;;;11.98;3.53;;;13.30;90.80;;;;;;6180319;23;20080;-69
2023/05/24 03:36:41;;;;;;;9.48;3.38;;;13.30;90.80;;;;;;6182195;23;20342;-69
2023/05/24 03:39:06;;;;;;;12.32;3.28;;;13.30;90.80;;;;;;6181800;23;19997;-69
2023/05/24 03:41:32;;;;;;;12.60;3.65;;;13.30;90.80;;;;;;6183238;23;20019;-69
2023/05/24 03:43:58;;;;;;;9.30;3.58;;;13.30;90.90;;;;;;6180888;23;20507;-68
2023/05/24 03:46:24;;;;;;;11.20;2.90;;;13.30;90.90;;;;;;6182347;23;20354;-69
2023/05/24 03:48:50;;;;;;;14.15;3.60;;;13.30;91.00;;;;;;6182130;23;20032;-69
2023/05/24 03:51:15;;;;;;;6.85;3.17;;;13.30;91.00;;;;;;6182161;23;20328;-69
2023/05/24 03:53:42;;;;;;;11.23;4.10;;;13.40;91.40;;;;;;6181720;23;20459;-61
2023/05/24 03:56:08;;;;;;;5.10;3.08;;;13.40;91.10;;;;;;6182221;23;20055;-61
2023/05/24 03:58:33;;;;;;;8.88;3.05;;;13.40;91.00;;;;;;6181891;23;20005;-60
2023/05/24 04:00:59;;;;;;;5.38;2.47;;;13.50;91.00;;;;;;6181820;23;20323;-59
2023/05/24 04:03:25;;;;;;;8.32;3.40;;;13.50;90.90;;;;;;6181873;23;20084;-60
2023/05/24 04:05:53;;;;;;;12.57;3.25;;;13.50;90.90;;;;;;6182007;23;20056;-60
2023/05/24 04:08:19;;;;;;;12.00;3.38;;;13.50;90.80;;;;;;6182159;23;20036;-60
2023/05/24 04:10:44;;;;;;;8.27;2.85;;;13.50;90.90;;;;;;6181223;23;20008;-60
2023/05/24 04:13:10;;;;;;;14.05;2.90;;;13.60;90.90;;;;;;6181669;23;20028;-60
2023/05/24 04:15:36;;;;;;;9.82;3.45;;;13.70;90.70;;;;;;6180533;23;20005;-60
2023/05/24 04:18:02;;;;;;;5.07;2.47;;;13.60;90.70;;;;;;6181666;23;20012;-61
2023/05/24 04:20:28;;;;;;;8.65;2.85;;;13.60;90.60;;;;;;6181339;23;20012;-61
2023/05/24 04:22:54;;;;;;;10.85;3.28;;;13.60;90.50;;;;;;6181257;23;20005;-69
2023/05/24 04:25:21;;;;;;;9.15;2.83;;;13.70;90.50;;;;;;6181951;23;20383;-70
2023/05/24 04:27:47;;;;;;;7.68;3.15;;;13.60;90.50;;;;;;6181441;23;20029;-70
2023/05/24 04:30:15;;;;;;;8.60;2.92;;;13.70;90.60;;;;;;6181060;23;20492;-70
2023/05/24 04:32:43;;;;;;;6.88;3.05;;;13.70;90.40;;;;;;6181761;23;20087;-70
2023/05/24 04:35:09;;;;;;;7.75;2.92;;;13.70;90.30;;;;;;6182145;23;20020;-69
2023/05/24 04:37:34;;;;;;;10.25;3.38;;;13.70;90.30;;;;;;6182436;23;20013;-70
2023/05/24 04:40:03;;;;;;;9.35;3.13;;;13.70;90.20;;;;;;6182143;23;20005;-69
2023/05/24 04:42:31;;;;;;;8.93;3.25;;;13.70;90.20;;;;;;6181451;23;20009;-69
2023/05/24 04:44:57;;;;;;;7.90;3.47;;;13.70;90.30;;;;;;6181067;23;20044;-70
2023/05/24 04:47:23;;;;;;;10.05;3.72;;;13.70;90.50;;;;;;6181836;23;20077;-69
2023/05/24 04:49:49;;;;;;;9.25;3.05;;;13.70;90.60;;;;;;6181673;23;20089;-69
2023/05/24 04:52:16;;;;;;;9.43;3.70;;;13.80;90.60;;;;;;6182384;23;20497;-70
2023/05/24 04:54:42;;;;;;;9.65;3.28;;;13.90;90.60;;;;;;6181599;23;20447;-67
2023/05/24 04:57:07;;;;;;;7.43;2.88;;;13.90;90.60;;;;;;6182236;23;20009;-67
2023/05/24 04:59:33;;;;;;;10.13;3.38;;;13.90;90.80;;;;;;6181487;23;20442;-67
2023/05/24 05:01:58;;;;;;;7.68;3.22;;;13.90;90.90;;;;;;6181600;23;20097;-75
2023/05/24 05:04:24;;;;;;;10.38;3.75;;;14.00;90.80;;;;;;6181034;23;20343;-69
2023/05/24 05:06:50;;;;;;;6.97;3.60;;;14.00;90.50;;;;;;6182320;23;20386;-70
2023/05/24 05:09:16;;;;;;;10.85;4.55;;;13.90;90.40;;;;;;6181205;23;20009;-69
2023/05/24 05:11:42;;;;;;;14.73;3.42;;;14.00;90.50;;;;;;6182278;23;20079;-69
2023/05/24 05:14:10;;;;;;;9.48;3.45;;;14.00;90.40;;;;;;6181321;23;20036;-71
2023/05/24 05:16:37;;;;;;;15.40;3.85;;;14.00;90.30;;;;;;6182192;23;20008;-71
2023/05/24 05:19:03;;;;;;;10.70;4.07;;;14.10;90.20;;;;;;6180178;23;20016;-65
2023/05/24 05:21:31;;;;;;;9.57;3.83;;;14.10;90.10;;;;;;6154395;23;20009;-64
2023/05/24 05:23:58;;;;;;;11.40;3.28;;;14.00;89.80;;;;;;6180624;23;20068;-63
2023/05/24 05:26:23;;;;;;;12.13;4.53;;;14.00;89.90;;;;;;6181478;23;20005;-62
2023/05/24 05:28:49;;;;;;;13.35;3.47;;;13.90;89.80;;;;;;6180980;23;20016;-63
2023/05/24 05:31:14;;;;;;;9.43;3.58;;;14.00;90.00;;;;;;6181891;23;20012;-62
2023/05/24 05:33:40;;;;;;;16.77;4.78;;;14.10;89.90;;;;;;6180626;23;20005;-63
2023/05/24 05:36:06;;;;;;;8.30;3.35;;;14.10;89.80;;;;;;6181904;23;20032;-62
2023/05/24 05:38:31;;;;;;;13.13;4.35;;;14.00;89.70;;;;;;6180225;23;20449;-62
2023/05/24 05:40:57;;;;;;;13.30;3.83;;;14.10;89.60;;;;;;6180790;23;20323;-63
2023/05/24 05:43:24;;;;;;;12.68;4.65;;;14.10;89.40;;;;;;6180763;23;20067;-63
2023/05/24 05:45:49;;;;;;;17.27;4.32;;;14.00;89.20;;;;;;6181384;23;20043;-63
2023/05/24 05:48:15;;;;;;;12.95;4.10;;;14.10;89.10;;;;;;6181144;23;20287;-62
2023/05/24 05:50:40;;;;;;;12.43;4.55;;;14.00;89.10;;;;;;6180515;23;20009;-62
2023/05/24 05:53:06;;;;;;;12.35;4.78;;;14.10;89.20;;;;;;6180077;23;20253;-62
2023/05/24 05:55:32;;;;;;;14.48;4.15;;;14.20;89.40;;;;;;6181182;23;20088;-62
2023/05/24 05:57:57;;;;;;;14.40;4.70;;;14.20;89.00;;;;;;6181600;23;20012;-62
2023/05/24 06:00:23;;;;;;;13.13;5.28;;;14.20;88.90;;;;;;6180990;23;20009;-62
2023/05/24 06:02:48;;;;;;;16.17;4.60;;;14.20;88.90;;;;;;6181425;23;20354;-63
2023/05/24 06:05:14;;;;;;;12.45;4.72;;;14.20;88.80;;;;;;6182361;23;20008;-62
2023/05/24 06:07:39;;;;;;;10.32;4.15;;;14.30;88.60;;;;;;6180944;23;20036;-63
2023/05/24 06:10:06;;;;;;;14.95;4.63;;;14.30;88.50;;;;;;6180883;23;20319;-63
2023/05/24 06:12:32;;;;;;;12.02;3.47;;;14.40;88.40;;;;;;6181954;23;20009;-62
2023/05/24 06:14:58;;;;;;;9.02;4.38;;;14.40;88.40;;;;;;6180680;23;20331;-62
2023/05/24 06:17:24;;;;;;;13.88;5.22;;;14.40;88.10;;;;;;6180835;23;20005;-62
2023/05/24 06:19:52;;;;;;;11.45;4.75;;;14.40;88.10;;;;;;6154840;23;20001;-63
2023/05/24 06:22:18;;;;;;;14.45;4.82;;;14.50;88.20;;;;;;6180999;23;20088;-62
2023/05/24 06:24:45;;;;;;;11.68;4.05;;;14.50;88.10;;;;;;6154271;23;20461;-62
2023/05/24 06:27:10;;;;;;;12.30;4.30;;;14.40;87.70;;;;;;6181462;23;20024;-62
2023/05/24 06:29:36;;;;;;;15.75;4.60;;;14.40;87.60;;;;;;6182681;23;20043;-62
2023/05/24 06:32:02;;;;;;;12.82;4.38;;;14.40;87.60;;;;;;6184652;23;20044;-71
2023/05/24 06:34:28;;;;;;;12.60;4.32;;;14.40;87.90;;;;;;6183987;23;20005;-71
2023/05/24 06:36:54;;;;;;;14.32;4.70;;;14.40;88.40;;;;;;6184868;23;20008;-72
2023/05/24 06:39:19;;;;;;;15.80;4.72;;;14.40;88.20;;;;;;6184084;23;20005;-70
2023/05/24 06:41:45;;;;;;;14.80;5.15;;;14.50;88.10;;;;;;6184065;23;20084;-71
2023/05/24 06:44:11;;;;;;;14.85;4.60;;;14.50;88.20;;;;;;6156703;23;20013;-72
2023/05/24 06:46:37;;;;;;;15.77;4.35;;;14.60;88.40;;;;;;6184178;23;20021;-72
2023/05/24 06:49:03;;;;;;;11.25;4.50;;;14.60;88.20;;;;;;6183927;23;20076;-72
2023/05/24 06:51:29;;;;;;;14.05;5.03;;;14.70;88.20;;;;;;6181385;23;20063;-68
2023/05/24 06:53:55;;;;;;;6.22;3.15;;;14.70;88.00;;;;;;6183177;23;20001;-69
2023/05/24 06:56:22;;;;;;;15.95;4.65;;;14.70;88.00;;;;;;6183653;23;20084;-68
2023/05/24 06:58:47;;;;;;;9.48;3.17;;;14.80;87.80;;;;;;6183697;23;20054;-69
2023/05/24 07:01:14;;;;;;;15.75;4.75;;;14.80;87.50;;;;;;6184567;23;20005;-69
2023/05/24 07:03:39;;;;;;;12.30;4.25;;;14.80;87.60;;;;;;6183011;23;20379;-69
2023/05/24 07:06:06;;;;;;;12.63;3.67;;;14.80;87.50;;;;;;6184137;23;20021;-68
2023/05/24 07:08:32;;;;;;;11.32;4.20;;;14.80;87.80;;;;;;6183737;23;20017;-70
2023/05/24 07:10:57;;;;;;;12.85;4.18;;;14.90;87.70;;;;;;6183812;23;20009;-69
2023/05/24 07:13:23;;;;;;;13.48;4.47;;;14.90;87.30;;;;;;6157175;23;20009;-66
2023/05/24 07:15:48;;;;;;;11.68;3.95;;;14.80;87.30;;;;;;6183413;23;20084;-66
2023/05/24 07:18:14;;;;;;;15.63;4.78;;;14.80;87.70;;;;;;6183116;23;20420;-66
2023/05/24 07:20:40;;;;;;;19.17;5.45;;;14.90;87.60;;;;;;6182311;23;20068;-66
2023/05/24 07:23:05;;;;;;;10.52;3.63;;;15.00;87.60;;;;;;6184165;23;20020;-66
2023/05/24 07:25:32;;;;;;;8.75;3.50;;;15.10;87.70;;;;;;6183074;23;20047;-67
2023/05/24 07:27:59;;;;;;;14.70;4.70;;;15.20;87.60;;;;;;6183532;23;20024;-66
2023/05/24 07:30:25;;;;;;;17.30;4.90;;;15.20;87.80;;;;;;6183508;23;20093;-67
2023/05/24 07:32:51;;;;;;;18.08;4.50;;;15.40;88.10;;;;;;6184025;23;20020;-66
2023/05/24 07:35:17;;;;;;;12.25;4.72;;;15.50;87.90;;;;;;6182813;23;20281;-65
2023/05/24 07:37:42;;;;;;;12.15;5.50;;;15.60;87.60;;;;;;6183050;23;20357;-65
2023/05/24 07:40:12;;;;;;;10.80;4.03;;;15.70;87.60;;;;;;6182882;23;20382;-64
2023/05/24 07:42:38;;;;;;;12.88;4.60;;;15.80;87.00;;;;;;6181453;23;20021;-64
2023/05/24 07:45:06;;;;;;;14.60;5.57;;;15.90;87.00;;;;;;6181382;23;20499;-65
2023/05/24 07:47:31;;;;;;;17.83;4.28;;;16.00;86.40;;;;;;6155230;23;20013;-64
2023/05/24 07:49:57;;;;;;;13.38;4.50;;;16.00;86.10;;;;;;6182593;23;20367;-64
2023/05/24 07:52:23;;;;;;;10.68;4.22;;;16.20;86.50;;;;;;6182117;23;20012;-64
2023/05/24 07:54:49;;;;;;;12.48;4.85;;;16.30;86.40;;;;;;6181649;23;20009;-66
2023/05/24 07:57:14;;;;;;;13.13;4.93;;;16.40;86.40;;;;;;6182227;23;20114;-65
2023/05/24 07:59:40;;;;;;;13.88;5.90;;;16.50;85.80;;;;;;6180382;23;20009;-65
2023/05/24 08:02:09;;;;;;;10.77;5.03;;;16.60;85.00;;;;;;6182498;23;20044;-64
2023/05/24 08:04:35;;;;;;;13.35;4.05;;;16.60;84.80;;;;;;6181971;23;20005;-66
2023/05/24 08:07:02;;;;;;;11.40;4.25;;;16.60;84.40;;;;;;6182189;23;20024;-64
2023/05/24 08:09:28;;;;;;;11.73;4.32;;;16.60;84.40;;;;;;6181935;23;20005;-64
2023/05/24 08:11:55;;;;;;;8.63;3.38;;;16.60;84.70;;;;;;6182723;23;20037;-64
2023/05/24 08:14:21;;;;;;;10.10;4.47;;;16.70;84.70;;;;;;6181805;23;20009;-64
2023/05/24 08:16:47;;;;;;;11.57;4.82;;;16.70;84.70;;;;;;6180680;23;20009;-64
2023/05/24 08:19:13;;;;;;;32.13;7.95;;;16.70;84.50;;;;;;6180792;23;19997;-65
2023/05/24 08:21:40;;;;;;;24.27;5.43;;;16.70;84.40;;;;;;6181075;23;20292;-65
2023/05/24 08:24:06;;;;;;;12.20;3.85;;;16.70;84.10;;;;;;6154566;23;20184;-64
2023/05/24 08:26:31;;;;;;;14.15;4.47;;;16.70;83.70;;;;;;6180439;23;20025;-64
2023/05/24 08:28:57;;;;;;;10.93;3.72;;;16.70;83.60;;;;;;6153993;23;20008;-65
2023/05/24 08:31:23;;;;;;;12.10;3.30;;;16.70;83.60;;;;;;6181803;23;20486;-65
2023/05/24 08:33:49;;;;;;;11.23;4.15;;;16.70;83.30;;;;;;6179657;23;20005;-65
2023/05/24 08:36:16;;;;;;;14.02;3.42;;;16.60;83.20;;;;;;6181660;23;20012;-66
2023/05/24 08:38:42;;;;;;;7.78;3.45;;;16.60;83.30;;;;;;6180433;23;20009;-65
2023/05/24 08:41:10;;;;;;;10.90;3.38;;;16.70;83.20;;;;;;6153580;23;20009;-63
2023/05/24 08:43:37;;;;;;;10.35;3.88;;;16.60;83.30;;;;;;6179230;23;20021;-62
2023/05/24 08:46:04;;;;;;;8.93;3.50;;;16.60;83.20;;;;;;6180666;23;20008;-62
2023/05/24 08:48:30;;;;;;;15.57;4.30;;;16.60;82.90;;;;;;6154514;23;20079;-60
2023/05/24 08:50:59;;;;;;;14.25;4.22;;;16.50;83.10;;;;;;6181451;23;20036;-61
2023/05/24 08:53:25;;;;;;;12.05;3.67;;;16.50;83.00;;;;;;6179943;23;20125;-61
2023/05/24 08:55:53;;;;;;;11.40;4.45;;;16.40;83.10;;;;;;6180077;23;20013;-60
2023/05/24 08:58:19;;;;;;;18.45;4.00;;;16.50;83.30;;;;;;6181306;23;20001;-60
2023/05/24 09:00:45;;;;;;;14.88;3.72;;;16.40;83.00;;;;;;6179814;23;20092;-59
2023/05/24 09:03:11;;;;;;;8.68;3.33;;;16.50;83.00;;;;;;6180774;23;20091;-60
2023/05/24 09:05:40;;;;;;;12.70;4.03;;;16.50;82.40;;;;;;6179776;23;20009;-60
2023/05/24 09:08:07;;;;;;;9.93;3.72;;;16.50;82.70;;;;;;6180123;23;20024;-59
2023/05/24 09:10:33;;;;;;;11.27;4.00;;;16.40;83.00;;;;;;6180161;23;20005;-59
2023/05/24 09:13:01;;;;;;;12.63;4.82;;;16.50;82.90;;;;;;6181111;23;20016;-59
2023/05/24 09:15:28;;;;;;;12.48;3.97;;;16.50;82.80;;;;;;6180432;23;20005;-59
2023/05/24 09:17:53;;;;;;;11.35;4.05;;;16.50;82.60;;;;;;6180739;23;20005;-59
2023/05/24 09:20:20;;;;;;;11.98;5.03;;;16.60;82.40;;;;;;6180544;23;20008;-59
2023/05/24 09:22:51;;;;;;;16.27;4.30;;;16.60;82.50;;;;;;6180529;23;20013;-59
2023/05/24 09:25:19;;;;;;;7.25;3.78;;;16.70;82.50;;;;;;6179720;23;20031;-59
2023/05/24 09:27:53;;;;;;;12.18;3.45;;;16.60;82.20;;;;;;6178796;23;20453;-59
2023/05/24 09:30:20;;;;;;;7.57;2.85;;;16.70;82.20;;;;;;6180810;23;20009;-60
2023/05/24 09:32:57;;;;;;;9.35;3.42;;;16.70;82.40;;;;;;6180798;23;20416;-59
2023/05/24 09:35:25;;;;;;;12.65;3.60;;;16.70;82.00;;;;;;6181481;23;20008;-59
2023/05/24 09:37:54;;;;;;;12.18;4.07;;;16.80;82.20;;;;;;6180537;23;20412;-60
2023/05/24 09:40:20;;;;;;;11.40;4.20;;;16.80;82.40;;;;;;6180476;23;20415;-60
2023/05/24 09:42:46;;;;;;;11.93;3.75;;;16.90;82.00;;;;;;6180477;23;20084;-59
2023/05/24 09:45:12;;;;;;;8.23;2.97;;;16.90;81.10;;;;;;6181109;23;20020;-60
2023/05/24 09:47:43;;;;;;;9.48;3.35;;;16.80;81.20;;;;;;6154517;23;20101;-59
2023/05/24 09:50:14;;;;;;;9.48;3.35;;;16.80;81.10;;;;;;6181050;23;20068;-59
2023/05/24 09:52:40;;;;;;;8.63;3.70;;;16.90;80.30;;;;;;6181279;23;20117;-70
2023/05/24 09:55:17;;;;;;;7.00;2.78;;;16.80;80.00;;;;;;6180668;23;20029;-69
2023/05/24 09:57:48;;;;;;;8.70;3.25;;;16.70;80.50;;;;;;6181051;23;20008;-69
2023/05/24 10:00:20;;;;;;;10.10;3.15;;;16.70;80.90;;;;;;6180489;23;20008;-69
2023/05/24 10:03:03;;;;;;;9.93;3.50;;;16.80;80.70;;;;;;6180335;23;20356;-69
2023/05/24 10:05:29;;;;;;;6.68;3.42;;;16.80;80.30;;;;;;6154322;23;20031;-69
2023/05/24 10:07:59;;;;;;;14.05;3.92;;;16.90;80.70;;;;;;6153907;23;20017;-70
2023/05/24 10:10:29;;;;;;;7.70;3.40;;;16.90;80.10;;;;;;6180784;23;20005;-69
2023/05/24 10:12:59;;;;;;;9.88;4.43;;;16.80;80.40;;;;;;6180919;23;20012;-70
2023/05/24 10:15:26;;;;;;;9.60;3.55;;;16.80;80.70;;;;;;6180048;23;20012;-70
2023/05/24 10:17:53;;;;;;;7.68;2.90;;;16.90;80.50;;;;;;6181573;23;20009;-69
2023/05/24 10:20:19;;;;;;;9.95;3.30;;;17.00;80.30;;;;;;6181220;23;20028;-69
2023/05/24 10:22:50;;;;;;;9.55;3.10;;;17.10;80.40;;;;;;6180481;23;20339;-69
2023/05/24 10:25:27;;;;;;;6.05;2.50;;;17.10;80.50;;;;;;6179797;23;20052;-69
2023/05/24 10:27:56;;;;;;;6.65;3.05;;;17.30;80.30;;;;;;6181253;23;20021;-69
2023/05/24 10:30:40;;;;;;;7.78;2.70;;;17.50;80.10;;;;;;6180740;23;20009;-68
2023/05/24 10:33:07;;;;;;;6.65;2.78;;;17.50;79.60;;;;;;6179421;23;20346;-70
2023/05/24 10:35:36;;;;;;;14.10;2.97;;;17.70;79.30;;;;;;6180710;23;20006;-69
2023/05/24 10:38:09;;;;;;;11.05;3.05;;;17.70;79.40;;;;;;6181111;23;20013;-68
2023/05/24 10:40:43;;;;;;;8.38;3.40;;;17.80;79.10;;;;;;6180468;23;20005;-69
2023/05/24 10:43:09;;;;;;;11.73;3.85;;;17.80;79.10;;;;;;6181231;23;20431;-69
2023/05/24 10:45:39;;;;;;;9.80;3.30;;;17.80;78.70;;;;;;6179791;23;20352;-69
2023/05/24 10:48:14;;;;;;;4.85;2.60;;;17.90;79.00;;;;;;6181626;23;20045;-69
2023/05/24 10:50:40;;;;;;;10.90;3.88;;;18.00;78.90;;;;;;6180696;23;20009;-70
2023/05/24 10:53:13;;;;;;;6.78;3.38;;;18.20;78.50;;;;;;6180476;23;20009;-70
2023/05/24 10:55:59;;;;;;;8.15;3.70;;;18.30;78.40;;;;;;6180430;23;20036;-70
2023/05/24 10:58:31;;;;;;;6.32;3.17;;;18.40;77.60;;;;;;6180034;23;20732;-69
2023/05/24 11:00:57;;;;;;;12.13;3.83;;;18.50;77.50;;;;;;6180757;23;20005;-68
2023/05/24 11:03:24;;;;;;;9.45;2.92;;;18.70;77.30;;;;;;6154213;23;20064;-70
2023/05/24 11:05:53;;;;;;;8.88;3.00;;;18.80;77.00;;;;;;6178643;23;20009;-69
2023/05/24 11:08:34;;;;;;;10.50;3.33;;;18.90;76.90;;;;;;6180752;23;20024;-70
2023/05/24 11:11:10;;;;;;;7.07;3.08;;;19.00;76.60;;;;;;6180808;23;20018;-69
2023/05/24 11:13:37;;;;;;;12.05;4.18;;;19.10;76.30;;;;;;6180423;23;20009;-69
2023/05/24 11:16:04;;;;;;;44.63;7.50;;;19.20;75.90;;;;;;6181497;23;20036;-69
2023/05/24 11:18:31;;;;;;;21.13;4.75;;;19.30;76.00;;;;;;6182275;23;20005;-68
2023/05/24 11:20:58;;;;;;;5.82;2.38;;;19.30;75.70;;;;;;6182355;23;20084;-70
2023/05/24 11:23:24;;;;;;;9.98;3.55;;;19.30;75.30;;;;;;6182664;23;20005;-70
2023/05/24 11:25:51;;;;;;;12.05;2.92;;;19.30;74.40;;;;;;6182279;23;20435;-67
2023/05/24 11:28:18;;;;;;;9.55;2.80;;;19.20;74.70;;;;;;6182812;23;20013;-69
2023/05/24 11:30:45;;;;;;;8.15;2.83;;;19.10;74.10;;;;;;6182005;23;20067;-70
2023/05/24 11:33:24;;;;;;;8.82;3.20;;;19.00;74.10;;;;;;6182698;23;20016;-68
2023/05/24 11:35:51;;;;;;;7.30;3.20;;;18.90;74.40;;;;;;6181994;23;20005;-69
2023/05/24 11:38:18;;;;;;;14.60;4.53;;;19.00;74.00;;;;;;6182164;23;20009;-69
2023/05/24 11:40:48;;;;;;;8.38;3.45;;;18.90;74.70;;;;;;6181638;23;20019;-69
2023/05/24 11:43:17;;;;;;;10.88;3.45;;;19.00;74.60;;;;;;6182748;23;20008;-69
2023/05/24 11:45:47;;;;;;;28.95;6.00;;;18.90;74.60;;;;;;6181776;23;20035;-69
2023/05/24 11:48:13;;;;;;;16.42;3.13;;;19.00;74.30;;;;;;6182191;23;20017;-69
2023/05/24 11:50:40;;;;;;;60.88;8.10;;;19.10;74.00;;;;;;6181660;23;20081;-70
2023/05/24 11:53:09;;;;;;;16.50;3.97;;;19.20;74.00;;;;;;6182149;23;20101;-69
2023/05/24 11:55:35;;;;;;;21.38;4.40;;;19.20;73.80;;;;;;6182182;23;20419;-69
2023/05/24 11:58:03;;;;;;;8.45;2.50;;;19.30;73.60;;;;;;6182532;23;20088;-59
2023/05/24 12:00:28;;;;;;;4.43;2.08;;;19.30;73.40;;;;;;6181561;23;20055;-60
2023/05/24 12:03:05;;;;;;;8.30;3.67;;;19.30;73.60;;;;;;6182565;23;20411;-60
2023/05/24 12:05:31;;;;;;;9.30;2.97;;;19.40;73.70;;;;;;6181823;23;20083;-60
2023/05/24 12:08:05;;;;;;;8.23;2.90;;;19.40;73.50;;;;;;6181428;23;20057;-61
2023/05/24 12:10:35;;;;;;;5.78;2.42;;;19.50;73.40;;;;;;6181429;23;20008;-60
2023/05/24 12:13:06;;;;;;;7.53;2.85;;;19.40;72.70;;;;;;6182432;23;20005;-60
2023/05/24 12:15:32;;;;;;;6.03;2.63;;;19.40;73.30;;;;;;6182156;23;20019;-60
2023/05/24 12:17:58;;;;;;;15.35;3.55;;;19.50;72.60;;;;;;6155345;23;20029;-59
2023/05/24 12:20:26;;;;;;;11.68;3.22;;;19.40;72.20;;;;;;6155005;23;20067;-60
2023/05/24 12:22:53;;;;;;;13.60;2.72;;;19.40;72.30;;;;;;6181888;23;20008;-61
2023/05/24 12:25:20;;;;;;;10.82;3.03;;;19.40;72.80;;;;;;6181390;23;20084;-60
2023/05/24 12:27:54;;;;;;;8.23;2.95;;;19.40;72.70;;;;;;6154986;23;20020;-59
2023/05/24 12:30:24;;;;;;;5.43;3.05;;;19.50;72.90;;;;;;6181665;23;20009;-60
2023/05/24 12:32:53;;;;;;;9.57;2.72;;;19.50;71.00;;;;;;6181343;23;20062;-59
2023/05/24 12:35:20;;;;;;;7.30;2.78;;;19.40;70.60;;;;;;6154579;23;20013;-59
2023/05/24 12:37:47;;;;;;;7.28;2.50;;;19.40;70.10;;;;;;6182379;23;20001;-60
2023/05/24 12:40:20;;;;;;;8.57;3.40;;;19.30;70.00;;;;;;6181050;23;20009;-60
2023/05/24 12:42:50;;;;;;;9.23;2.75;;;19.30;70.60;;;;;;6182576;23;20005;-59